Time;durP1;ratioP1;P1;durP2;ratioP2;P2;SDS_P1;SDS_P2;PMS_P1;PMS_P2;Temp;Humidity;BMP_temperature;BMP_pressure;BME280_temperature;BME280_humidity;BME280_pressure;Samples;Min_cycle;Max_cycle;Signal;HPM_P1;HPM_P2
2023/05/15 00:01:33;;;;;;;9.27;3.90;;;11.30;1.00;;;;;;4973153;28;20478;-54
2023/05/15 00:03:58;;;;;;;9.67;4.07;;;11.20;83.10;;;;;;4972935;28;20473;-54
2023/05/15 00:06:24;;;;;;;10.50;4.20;;;11.10;99.90;;;;;;4973207;28;20385;-54
2023/05/15 00:08:49;;;;;;;10.20;4.17;;;11.10;99.90;;;;;;4972543;28;20866;-55
2023/05/15 00:11:16;;;;;;;9.55;4.20;;;11.10;99.90;;;;;;4972921;28;20416;-54
2023/05/15 00:13:41;;;;;;;9.73;3.70;;;11.10;99.90;;;;;;4972866;28;20865;-55
2023/05/15 00:16:08;;;;;;;8.60;3.90;;;11.30;99.90;;;;;;4973030;28;20396;-54
2023/05/15 00:18:34;;;;;;;9.05;4.10;;;11.20;99.90;;;;;;4972742;28;20483;-54
2023/05/15 00:20:59;;;;;;;9.90;4.20;;;11.20;99.90;;;;;;4971222;28;20487;-54
2023/05/15 00:23:25;;;;;;;10.20;4.70;;;11.20;99.90;;;;;;4972647;28;20926;-54
2023/05/15 00:25:51;;;;;;;9.75;4.00;;;11.10;99.90;;;;;;4972079;28;20372;-54
2023/05/15 00:28:16;;;;;;;9.40;4.10;;;11.10;99.90;;;;;;4971523;28;20487;-54
2023/05/15 00:30:42;;;;;;;9.98;4.70;;;11.20;99.90;;;;;;4972933;28;20843;-54
2023/05/15 00:33:08;;;;;;;10.63;4.50;;;11.20;99.90;;;;;;4972158;28;20860;-54
2023/05/15 00:35:33;;;;;;;10.20;3.88;;;11.30;99.90;;;;;;4972694;28;20399;-54
2023/05/15 00:37:59;;;;;;;10.87;4.40;;;11.40;99.90;;;;;;4971596;28;20857;-54
2023/05/15 00:40:25;;;;;;;10.90;4.30;;;11.50;99.90;;;;;;4972491;28;20416;-54
2023/05/15 00:42:51;;;;;;;9.00;3.85;;;11.70;99.90;;;;;;4971974;28;20388;-54
2023/05/15 00:45:19;;;;;;;11.02;4.65;;;11.70;99.90;;;;;;4972688;28;20443;-54
2023/05/15 00:47:46;;;;;;;10.45;4.43;;;11.70;99.90;;;;;;4972187;28;20463;-54
2023/05/15 00:50:11;;;;;;;10.70;4.60;;;11.60;99.90;;;;;;4971985;28;20463;-54
2023/05/15 00:52:37;;;;;;;14.80;4.10;;;11.60;99.90;;;;;;4954685;28;20384;-54
2023/05/15 00:55:04;;;;;;;9.80;4.80;;;11.60;99.90;;;;;;4971160;28;20782;-54
2023/05/15 00:57:30;;;;;;;9.77;4.28;;;11.60;99.90;;;;;;4971653;28;20404;-54
2023/05/15 00:59:56;;;;;;;10.52;5.00;;;11.60;99.90;;;;;;4971384;28;20396;-54
2023/05/15 01:02:22;;;;;;;9.30;4.40;;;11.50;99.90;;;;;;4971812;28;20388;-54
2023/05/15 01:04:48;;;;;;;9.70;4.15;;;11.70;99.90;;;;;;4971322;28;20470;-54
2023/05/15 01:07:14;;;;;;;10.20;4.45;;;11.70;99.90;;;;;;4971863;28;20393;-54
2023/05/15 01:09:43;;;;;;;9.60;4.53;;;11.70;99.90;;;;;;4970942;28;20397;-54
2023/05/15 01:12:10;;;;;;;10.43;4.70;;;11.70;99.90;;;;;;4971189;28;20443;-54
2023/05/15 01:14:36;;;;;;;10.38;4.60;;;11.60;99.90;;;;;;4971781;28;20499;-54
2023/05/15 01:17:01;;;;;;;12.00;5.05;;;11.60;99.90;;;;;;4970739;28;20636;-54
2023/05/15 01:19:27;;;;;;;10.67;4.77;;;11.60;75.80;;;;;;4971848;28;20376;-54
2023/05/15 01:22:08;;;;;;;9.60;4.30;;;11.50;99.90;;;;;;4970723;28;20392;-54
2023/05/15 01:25:02;;;;;;;10.15;4.55;;;11.50;99.90;;;;;;4971603;28;20416;-54
2023/05/15 01:27:38;;;;;;;9.65;4.20;;;11.40;99.90;;;;;;4971022;28;20408;-54
2023/05/15 01:30:03;;;;;;;13.73;4.90;;;11.40;99.90;;;;;;4970507;28;20432;-54
2023/05/15 01:33:00;;;;;;;10.30;4.70;;;11.40;99.90;;;;;;4971389;28;20790;-54
2023/05/15 01:35:44;;;;;;;9.90;4.45;;;11.40;99.90;;;;;;4971540;28;20738;-54
2023/05/15 01:38:38;;;;;;;10.18;4.25;;;11.30;99.90;;;;;;4970634;28;20400;-54
2023/05/15 01:41:19;;;;;;;10.95;4.60;;;11.40;99.90;;;;;;4970876;28;20395;-54
2023/05/15 01:43:51;;;;;;;9.68;4.40;;;11.50;99.90;;;;;;4971169;28;20392;-54
2023/05/15 01:46:19;;;;;;;11.00;4.30;;;11.50;99.90;;;;;;4971473;28;20439;-54
2023/05/15 01:48:47;;;;;;;11.27;4.55;;;11.50;99.90;;;;;;4970907;28;20770;-54
2023/05/15 01:51:13;;;;;;;10.00;4.15;;;11.50;99.90;;;;;;4970955;28;20423;-54
2023/05/15 01:53:40;;;;;;;11.07;4.82;;;11.50;99.90;;;;;;4971519;28;20419;-54
2023/05/15 01:56:08;;;;;;;10.25;3.80;;;11.50;99.90;;;;;;4970620;28;21228;-54
2023/05/15 01:58:36;;;;;;;9.73;3.95;;;11.40;99.90;;;;;;4971260;28;20783;-54
2023/05/15 02:01:03;;;;;;;13.25;3.80;;;11.30;99.90;;;;;;4970544;28;20400;-54
2023/05/15 02:03:33;;;;;;;9.85;3.70;;;11.30;99.90;;;;;;4970900;28;20945;-54
2023/05/15 02:06:00;;;;;;;12.60;4.20;;;11.30;99.90;;;;;;4970543;28;20384;-54
2023/05/15 02:08:27;;;;;;;10.05;4.15;;;11.30;99.90;;;;;;4970789;28;20420;-54
2023/05/15 02:10:55;;;;;;;9.98;4.00;;;11.30;99.90;;;;;;4970364;28;20439;-54
2023/05/15 02:13:23;;;;;;;9.45;3.65;;;11.30;99.90;;;;;;4971474;28;20809;-54
2023/05/15 02:15:48;;;;;;;12.55;4.25;;;11.30;99.90;;;;;;4953659;28;20766;-54
2023/05/15 02:18:14;;;;;;;10.27;4.60;;;11.20;99.90;;;;;;4970462;28;20381;-54
2023/05/15 02:20:39;;;;;;;9.00;4.32;;;11.20;99.90;;;;;;4971326;28;20392;-54
2023/05/15 02:23:05;;;;;;;9.50;4.50;;;11.20;99.90;;;;;;4969768;28;20388;-54
2023/05/15 02:26:06;;;;;;;10.85;4.30;;;11.20;99.90;;;;;;4970654;28;20792;-54
2023/05/15 02:28:53;;;;;;;9.35;4.07;;;11.20;99.90;;;;;;4971366;28;20416;-54
2023/05/15 02:31:39;;;;;;;8.75;4.05;;;11.30;1.00;;;;;;4970370;28;20428;-54
2023/05/15 02:34:43;;;;;;;9.95;4.25;;;11.40;1.00;;;;;;4970481;28;20404;-54
2023/05/15 02:37:13;;;;;;;8.40;3.42;;;11.50;1.00;;;;;;4972827;28;20468;-54
2023/05/15 02:39:42;;;;;;;9.30;4.03;;;11.60;1.00;;;;;;4974426;28;20838;-54
2023/05/15 02:42:10;;;;;;;9.25;4.00;;;11.70;99.90;;;;;;4973996;28;20423;-54
2023/05/15 02:44:37;;;;;;;12.52;4.13;;;11.80;99.90;;;;;;4974406;28;20404;-54
2023/05/15 02:47:04;;;;;;;9.23;3.78;;;11.80;99.90;;;;;;4973849;28;20384;-54
2023/05/15 02:49:31;;;;;;;9.43;4.00;;;11.90;99.90;;;;;;4974491;28;20392;-54
2023/05/15 02:51:57;;;;;;;9.17;3.90;;;12.00;99.90;;;;;;4956142;28;20458;-54
2023/05/15 02:54:22;;;;;;;8.20;3.42;;;12.10;99.90;;;;;;4974792;28;20419;-54
2023/05/15 02:56:48;;;;;;;8.93;3.60;;;12.10;99.90;;;;;;4973769;28;20754;-54
2023/05/15 02:59:18;;;;;;;9.40;3.80;;;12.10;99.90;;;;;;4973899;28;20388;-54
2023/05/15 03:01:45;;;;;;;9.60;4.10;;;12.00;99.90;;;;;;4974052;28;20388;-54
2023/05/15 03:04:13;;;;;;;8.90;3.90;;;12.00;99.90;;;;;;4973474;28;20380;-54
2023/05/15 03:06:38;;;;;;;9.25;4.50;;;11.90;99.90;;;;;;4973658;28;20465;-54
2023/05/15 03:09:04;;;;;;;9.40;4.00;;;11.90;99.90;;;;;;4966550;28;20390;-54
2023/05/15 03:11:29;;;;;;;10.37;3.73;;;11.90;99.90;;;;;;4959116;28;20427;-54
2023/05/15 03:13:55;;;;;;;11.27;3.92;;;12.10;99.90;;;;;;4973171;28;20543;-54
2023/05/15 03:16:21;;;;;;;8.10;3.70;;;11.90;99.90;;;;;;4974295;28;20391;-54
2023/05/15 03:18:46;;;;;;;9.00;3.88;;;12.00;99.90;;;;;;4973917;28;20884;-54
2023/05/15 03:21:13;;;;;;;8.20;3.70;;;11.90;99.90;;;;;;4973228;28;20545;-54
2023/05/15 03:23:38;;;;;;;10.00;4.15;;;12.00;99.90;;;;;;4973712;28;20403;-54
2023/05/15 03:26:04;;;;;;;9.95;3.80;;;11.90;99.90;;;;;;4958372;28;20857;-54
2023/05/15 03:28:30;;;;;;;8.50;3.60;;;12.00;99.90;;;;;;4972512;28;20854;-54
2023/05/15 03:30:56;;;;;;;9.25;4.10;;;12.00;99.90;;;;;;4971147;28;20702;-54
2023/05/15 03:33:22;;;;;;;10.20;3.80;;;12.00;99.90;;;;;;4973487;28;20483;-54
2023/05/15 03:35:47;;;;;;;8.80;3.53;;;12.10;99.90;;;;;;4973703;28;20479;-54
2023/05/15 03:38:13;;;;;;;8.20;3.88;;;12.00;99.90;;;;;;4972940;28;20443;-54
2023/05/15 03:40:38;;;;;;;9.27;4.03;;;12.00;99.90;;;;;;4973224;28;20396;-54
2023/05/15 03:43:05;;;;;;;7.90;3.70;;;12.10;99.90;;;;;;4972665;28;20798;-54
2023/05/15 03:45:33;;;;;;;9.20;3.90;;;12.10;99.90;;;;;;4971659;28;20911;-54
2023/05/15 03:47:59;;;;;;;10.13;4.47;;;12.30;99.90;;;;;;4971870;28;20392;-54
2023/05/15 03:50:25;;;;;;;8.95;4.25;;;12.30;99.90;;;;;;4973048;28;20471;-54
2023/05/15 03:52:50;;;;;;;9.20;4.00;;;12.40;99.90;;;;;;4972761;28;20509;-55
2023/05/15 03:55:16;;;;;;;9.23;4.03;;;12.40;99.90;;;;;;4973117;28;20392;-54
2023/05/15 03:57:42;;;;;;;8.98;4.20;;;12.30;99.90;;;;;;4973191;28;20515;-54
2023/05/15 04:00:09;;;;;;;10.30;3.90;;;12.40;99.90;;;;;;4972696;28;20421;-54
2023/05/15 04:02:35;;;;;;;9.05;3.90;;;12.40;99.90;;;;;;4972801;28;20723;-54
2023/05/15 04:05:02;;;;;;;10.93;4.70;;;12.30;99.90;;;;;;4971290;28;20455;-54
2023/05/15 04:07:28;;;;;;;11.27;4.50;;;12.30;99.90;;;;;;4973321;28;20380;-54
2023/05/15 04:09:54;;;;;;;9.52;4.45;;;12.40;99.90;;;;;;4972123;28;20442;-54
2023/05/15 04:12:20;;;;;;;10.90;4.57;;;12.50;99.90;;;;;;4972777;28;20957;-54
2023/05/15 04:14:46;;;;;;;9.77;4.30;;;12.50;99.90;;;;;;4973007;28;20428;-54
2023/05/15 04:17:11;;;;;;;8.83;4.07;;;12.50;99.90;;;;;;4971942;28;20944;-54
2023/05/15 04:19:39;;;;;;;10.48;4.68;;;12.70;99.90;;;;;;4965350;28;20484;-54
2023/05/15 04:22:05;;;;;;;10.05;4.47;;;12.70;99.90;;;;;;4972221;28;20424;-54
2023/05/15 04:24:30;;;;;;;10.90;4.90;;;12.90;99.90;;;;;;4953889;28;20859;-54
2023/05/15 04:26:56;;;;;;;9.13;4.33;;;12.90;17.20;;;;;;4952866;29;20430;-54
2023/05/15 04:29:21;;;;;;;9.55;4.63;;;13.00;1.00;;;;;;4953526;29;20504;-54
2023/05/15 04:31:47;;;;;;;9.35;3.95;;;12.90;1.00;;;;;;4955431;28;20759;-54
2023/05/15 04:34:13;;;;;;;9.83;4.43;;;12.90;1.00;;;;;;4961344;28;20445;-54
2023/05/15 04:36:38;;;;;;;12.27;4.60;;;12.80;39.00;;;;;;4958157;28;20403;-54
2023/05/15 04:39:04;;;;;;;13.27;4.80;;;12.90;99.90;;;;;;4971019;28;20399;-54
2023/05/15 04:41:32;;;;;;;9.87;4.03;;;12.90;99.90;;;;;;4971757;28;20428;-54
2023/05/15 04:43:57;;;;;;;10.52;4.53;;;13.00;99.90;;;;;;4971803;28;20422;-54
2023/05/15 04:46:23;;;;;;;8.80;4.37;;;13.00;72.60;;;;;;4971509;28;20435;-54
2023/05/15 04:48:48;;;;;;;10.27;5.27;;;12.80;99.90;;;;;;4971469;28;20529;-54
2023/05/15 04:51:14;;;;;;;8.98;4.40;;;12.80;99.90;;;;;;4970255;28;20428;-54
2023/05/15 04:53:39;;;;;;;13.30;5.30;;;12.80;99.90;;;;;;4964598;28;20404;-54
2023/05/15 04:56:05;;;;;;;11.33;4.40;;;12.90;99.90;;;;;;4971052;28;20392;-54
2023/05/15 04:58:31;;;;;;;10.25;4.80;;;12.80;99.90;;;;;;4971523;28;20798;-57
2023/05/15 05:00:56;;;;;;;10.37;5.13;;;12.90;99.90;;;;;;4967536;28;20447;-57
2023/05/15 05:03:22;;;;;;;11.17;5.60;;;13.40;99.90;;;;;;4970429;28;20401;-58
2023/05/15 05:05:48;;;;;;;9.63;4.80;;;14.10;2.80;;;;;;4968969;28;20419;-57
2023/05/15 05:08:13;;;;;;;11.05;4.95;;;14.80;1.00;;;;;;4968510;28;20589;-57
2023/05/15 05:10:39;;;;;;;9.80;4.30;;;15.30;95.60;;;;;;4971163;28;20905;-58
2023/05/15 05:13:04;;;;;;;10.48;4.57;;;15.60;70.70;;;;;;4967459;28;20519;-57
2023/05/15 05:15:30;;;;;;;10.55;4.13;;;16.00;99.90;;;;;;4963691;28;20532;-56
2023/05/15 05:17:55;;;;;;;11.77;5.37;;;15.70;99.90;;;;;;4971211;28;20399;-56
2023/05/15 05:20:21;;;;;;;10.20;4.20;;;15.40;99.90;;;;;;4971318;28;20418;-56
2023/05/15 05:22:47;;;;;;;9.52;4.28;;;15.70;99.90;;;;;;4969608;28;20458;-56
2023/05/15 05:25:13;;;;;;;11.43;4.90;;;15.90;1.00;;;;;;4970747;28;20722;-57
2023/05/15 05:27:38;;;;;;;11.48;4.53;;;16.30;1.00;;;;;;4971174;28;20778;-57
2023/05/15 05:30:05;;;;;;;12.48;4.90;;;16.80;99.90;;;;;;4959452;28;20516;-55
2023/05/15 05:32:30;;;;;;;9.68;4.47;;;17.20;99.90;;;;;;4951824;29;20568;-55
2023/05/15 05:34:56;;;;;;;10.50;4.57;;;17.80;99.90;;;;;;4943267;29;20914;-55
2023/05/15 05:37:21;;;;;;;10.30;4.95;;;18.10;33.30;;;;;;4951429;29;20431;-55
2023/05/15 05:39:47;;;;;;;11.43;5.20;;;18.30;1.00;;;;;;4934493;29;20473;-55
2023/05/15 05:42:12;;;;;;;9.00;4.40;;;18.00;1.00;;;;;;4951041;29;20393;-55
2023/05/15 05:44:38;;;;;;;9.83;5.33;;;18.00;1.00;;;;;;4952353;29;20525;-55
2023/05/15 05:47:04;;;;;;;10.30;4.70;;;18.50;1.00;;;;;;4951689;29;20402;-56
2023/05/15 05:49:29;;;;;;;11.50;4.75;;;19.00;1.00;;;;;;4952180;29;20919;-55
2023/05/15 05:51:55;;;;;;;9.43;4.22;;;19.00;1.00;;;;;;4951529;29;20882;-56
2023/05/15 05:54:21;;;;;;;8.90;4.40;;;18.50;1.00;;;;;;4951654;29;20453;-55
2023/05/15 05:56:46;;;;;;;9.30;4.37;;;18.40;1.00;;;;;;4951682;29;20426;-56
2023/05/15 05:59:12;;;;;;;10.27;4.20;;;18.90;1.00;;;;;;4951314;29;21020;-56
2023/05/15 06:01:38;;;;;;;10.60;4.77;;;19.70;1.00;;;;;;4952043;29;20381;-56
2023/05/15 06:04:03;;;;;;;9.95;4.60;;;20.30;1.00;;;;;;4948371;28;20469;-56
2023/05/15 06:06:29;;;;;;;10.60;5.28;;;20.10;1.00;;;;;;4939156;28;20408;-56
2023/05/15 06:08:55;;;;;;;11.10;4.43;;;19.70;1.00;;;;;;4949133;29;20382;-56
2023/05/15 06:11:20;;;;;;;14.10;5.00;;;19.50;1.00;;;;;;4931978;29;20424;-56
2023/05/15 06:13:46;;;;;;;9.43;4.35;;;20.00;1.00;;;;;;4937880;29;20394;-56
2023/05/15 06:16:12;;;;;;;9.10;4.43;;;19.90;1.00;;;;;;4950574;29;20931;-56
2023/05/15 06:18:37;;;;;;;9.30;4.78;;;20.20;1.00;;;;;;4951396;29;20437;-56
2023/05/15 06:21:03;;;;;;;9.40;4.50;;;19.90;1.00;;;;;;4951213;29;20398;-56
2023/05/15 06:23:28;;;;;;;8.63;4.00;;;19.40;1.00;;;;;;4936918;29;20399;-56
2023/05/15 06:25:54;;;;;;;11.40;5.10;;;19.00;1.00;;;;;;4932390;29;20407;-56
2023/05/15 06:28:20;;;;;;;9.90;4.60;;;18.40;1.00;;;;;;4914535;29;20494;-56
2023/05/15 06:30:45;;;;;;;9.20;4.40;;;17.90;1.00;;;;;;4947699;29;20433;-56
2023/05/15 06:33:11;;;;;;;10.30;4.50;;;18.10;1.00;;;;;;4951131;29;20728;-56
2023/05/15 06:35:36;;;;;;;10.75;4.30;;;19.10;1.00;;;;;;4951360;29;20457;-56
2023/05/15 06:38:02;;;;;;;9.03;4.00;;;19.20;1.00;;;;;;4950730;29;20485;-56
2023/05/15 06:40:28;;;;;;;10.37;3.80;;;19.70;1.00;;;;;;4965544;28;20418;-56
2023/05/15 06:42:54;;;;;;;10.25;4.65;;;19.40;1.00;;;;;;4970460;28;20892;-56
2023/05/15 06:45:19;;;;;;;10.27;4.75;;;19.30;1.00;;;;;;4969853;28;20471;-56
2023/05/15 06:47:45;;;;;;;10.87;4.57;;;20.00;1.00;;;;;;4970643;28;20415;-57
2023/05/15 06:50:11;;;;;;;10.00;4.63;;;21.30;1.00;;;;;;4970166;28;20523;-57
2023/05/15 06:52:36;;;;;;;11.47;4.90;;;21.10;99.90;;;;;;4970393;28;20388;-57
2023/05/15 06:55:02;;;;;;;9.37;4.30;;;20.80;99.90;;;;;;4970424;28;20838;-57
2023/05/15 06:57:27;;;;;;;9.60;4.83;;;20.80;99.90;;;;;;4971055;28;20404;-57
2023/05/15 06:59:53;;;;;;;9.00;4.47;;;20.90;99.90;;;;;;4970932;28;20396;-57
2023/05/15 07:02:18;;;;;;;9.03;4.50;;;21.20;99.90;;;;;;4969186;28;20419;-57
2023/05/15 07:04:44;;;;;;;9.33;4.17;;;21.70;99.90;;;;;;4970527;28;20384;-57
2023/05/15 07:07:10;;;;;;;8.60;3.83;;;21.30;99.90;;;;;;4969318;28;20727;-57
2023/05/15 07:09:35;;;;;;;8.53;4.10;;;20.80;99.90;;;;;;4970446;28;20388;-57
2023/05/15 07:12:01;;;;;;;9.88;4.60;;;20.90;99.90;;;;;;4969417;28;20823;-58
2023/05/15 07:14:26;;;;;;;9.38;4.18;;;21.30;99.90;;;;;;4956666;28;20390;-55
2023/05/15 07:16:52;;;;;;;10.98;4.78;;;21.40;99.90;;;;;;4951187;29;20418;-55
2023/05/15 07:19:19;;;;;;;8.60;4.10;;;21.60;99.90;;;;;;4950290;29;20386;-55
2023/05/15 07:21:47;;;;;;;12.30;4.93;;;22.10;99.90;;;;;;4951035;28;20402;-57
2023/05/15 07:24:12;;;;;;;9.00;4.50;;;22.90;99.90;;;;;;4953599;29;20413;-57
2023/05/15 07:26:38;;;;;;;10.80;6.53;;;23.90;99.90;;;;;;4954348;29;20378;-57
2023/05/15 07:29:04;;;;;;;8.37;5.37;;;24.50;99.90;;;;;;4953895;29;20803;-58
2023/05/15 07:31:32;;;;;;;9.15;6.97;;;24.80;99.90;;;;;;4954494;29;20891;-58
2023/05/15 07:33:58;;;;;;;10.10;6.50;;;24.10;99.90;;;;;;4953322;29;20467;-57
2023/05/15 07:36:23;;;;;;;9.20;6.93;;;23.80;99.90;;;;;;4953820;29;20894;-57
2023/05/15 07:38:49;;;;;;;9.20;7.17;;;24.10;99.90;;;;;;4954046;29;20401;-57
2023/05/15 07:41:15;;;;;;;10.27;9.27;;;25.30;99.90;;;;;;4953697;29;20485;-58
2023/05/15 07:43:40;;;;;;;10.90;3.93;;;26.20;99.90;;;;;;4953817;29;20398;-57
2023/05/15 07:46:06;;;;;;;8.40;4.97;;;26.00;99.90;;;;;;4953470;29;20441;-58
2023/05/15 07:48:31;;;;;;;10.83;9.33;;;26.30;99.90;;;;;;4953699;29;20382;-58
2023/05/15 07:50:57;;;;;;;10.20;8.55;;;26.80;99.90;;;;;;4952695;29;20406;-58
2023/05/15 07:53:22;;;;;;;9.50;8.30;;;26.00;99.90;;;;;;4953752;29;20820;-58
2023/05/15 07:55:48;;;;;;;8.90;7.47;;;25.80;99.90;;;;;;4954004;29;20393;-58
2023/05/15 07:58:14;;;;;;;8.20;6.80;;;24.80;99.90;;;;;;4953170;29;20981;-58
2023/05/15 08:00:39;;;;;;;8.30;6.50;;;25.10;99.90;;;;;;4954082;29;20397;-58
2023/05/15 08:03:05;;;;;;;9.15;6.82;;;25.40;99.90;;;;;;4952998;29;20722;-58
2023/05/15 08:05:30;;;;;;;8.57;6.50;;;24.80;99.90;;;;;;4954036;29;20744;-58
2023/05/15 08:07:56;;;;;;;10.93;6.28;;;24.10;99.90;;;;;;4952889;29;20390;-58
2023/05/15 08:10:22;;;;;;;8.50;5.70;;;23.50;99.90;;;;;;4953301;29;20752;-58
2023/05/15 08:12:49;;;;;;;9.40;5.80;;;23.30;99.90;;;;;;4953538;29;20378;-57
2023/05/15 08:15:15;;;;;;;7.80;4.70;;;22.80;99.90;;;;;;4972448;28;20400;-57
2023/05/15 08:17:40;;;;;;;8.45;4.70;;;22.40;99.90;;;;;;4972539;28;20389;-57
2023/05/15 08:20:07;;;;;;;8.05;5.00;;;23.90;99.90;;;;;;4971444;28;20411;-58
2023/05/15 08:22:32;;;;;;;8.07;5.40;;;24.20;99.90;;;;;;4972693;28;20889;-58
2023/05/15 08:24:59;;;;;;;8.43;5.50;;;24.20;99.90;;;;;;4971962;28;20380;-58
2023/05/15 08:27:25;;;;;;;8.65;5.05;;;24.40;99.90;;;;;;4971734;28;20415;-58
2023/05/15 08:29:53;;;;;;;9.23;3.80;;;25.30;99.90;;;;;;4972461;28;20435;-58
2023/05/15 08:32:19;;;;;;;7.10;3.10;;;25.30;99.90;;;;;;4971230;28;20412;-58
2023/05/15 08:34:44;;;;;;;7.60;3.40;;;24.50;99.90;;;;;;4972131;28;20472;-58
2023/05/15 08:37:10;;;;;;;7.90;3.20;;;23.00;99.90;;;;;;4971415;28;20417;-57
2023/05/15 08:39:35;;;;;;;7.80;3.30;;;22.70;99.90;;;;;;4972536;28;20475;-57
2023/05/15 08:42:19;;;;;;;9.07;3.00;;;23.90;99.90;;;;;;4971613;28;20896;-58
2023/05/15 08:44:45;;;;;;;7.68;3.30;;;25.00;99.90;;;;;;4972623;28;20886;-57
2023/05/15 08:47:12;;;;;;;7.80;3.17;;;25.30;99.90;;;;;;4971780;28;20427;-58
2023/05/15 08:50:14;;;;;;;7.07;3.00;;;25.20;99.90;;;;;;4972595;28;20508;-57
2023/05/15 08:52:50;;;;;;;7.80;4.70;;;;;;;;;;4972266;28;20790;-58
2023/05/15 08:55:16;;;;;;;11.50;9.98;;;27.80;99.90;;;;;;4971942;28;20380;-59
2023/05/15 08:57:45;;;;;;;9.95;9.05;;;28.40;99.90;;;;;;4971568;28;20396;-58
2023/05/15 09:00:13;;;;;;;11.63;10.63;;;28.00;99.90;;;;;;4970842;28;20392;-58
2023/05/15 09:02:40;;;;;;;11.52;10.43;;;28.40;99.90;;;;;;4971524;28;20391;-56
2023/05/15 09:05:08;;;;;;;12.30;10.90;;;27.70;99.90;;;;;;4971154;28;20404;-56
2023/05/15 09:07:34;;;;;;;9.30;8.40;;;27.90;99.90;;;;;;4971612;28;20944;-56
2023/05/15 09:10:02;;;;;;;10.00;9.00;;;27.60;99.90;;;;;;4971697;28;20471;-57
2023/05/15 09:12:30;;;;;;;10.40;8.43;;;26.90;99.90;;;;;;4971701;28;20767;-58
2023/05/15 09:15:16;;;;;;;10.38;8.07;;;26.50;99.90;;;;;;4954450;28;20864;-58
2023/05/15 09:17:43;;;;;;;8.88;7.60;;;26.00;99.90;;;;;;4952108;29;20387;-58
2023/05/15 09:20:32;;;;;;;10.30;8.70;;;27.70;99.90;;;;;;4952176;29;20477;-56
2023/05/15 09:23:00;;;;;;;9.27;8.37;;;27.50;99.90;;;;;;4951580;29;20394;-56
2023/05/15 09:25:37;;;;;;;12.80;11.60;;;28.50;99.90;;;;;;4952835;29;20429;-56
2023/05/15 09:28:03;;;;;;;10.90;9.80;;;28.60;99.90;;;;;;4951573;29;20421;-57
2023/05/15 09:30:29;;;;;;;11.40;10.40;;;28.60;99.90;;;;;;4952300;29;20489;-57
2023/05/15 09:33:02;;;;;;;11.20;10.10;;;28.40;99.90;;;;;;4951781;29;20398;-57
2023/05/15 09:35:38;;;;;;;10.50;9.23;;;27.40;99.90;;;;;;4951929;29;20385;-56
2023/05/15 09:38:11;;;;;;;10.45;9.45;;;27.30;99.90;;;;;;4951006;29;20408;-57
2023/05/15 09:40:38;;;;;;;10.00;9.00;;;27.50;99.90;;;;;;4951840;29;20405;-56
2023/05/15 09:43:05;;;;;;;9.90;8.27;;;26.50;99.90;;;;;;4951171;29;20816;-57
2023/05/15 09:45:30;;;;;;;10.00;8.70;;;27.70;99.90;;;;;;4951234;28;20440;-57
2023/05/15 09:48:02;;;;;;;8.80;7.63;;;26.40;99.90;;;;;;4951489;29;20452;-57
2023/05/15 09:50:34;;;;;;;9.95;7.38;;;25.70;99.90;;;;;;4951573;29;20946;-57
2023/05/15 09:53:00;;;;;;;10.50;8.07;;;26.10;99.90;;;;;;4951614;29;20378;-61
2023/05/15 09:55:26;;;;;;;9.80;7.80;;;26.40;99.90;;;;;;4951317;29;20899;-57
2023/05/15 09:58:10;;;;;;;8.80;7.85;;;27.30;99.90;;;;;;4951199;29;20789;-57
2023/05/15 10:00:36;;;;;;;10.00;9.00;;;28.50;99.90;;;;;;4951062;29;20883;-58
2023/05/15 10:03:03;;;;;;;8.73;4.63;;;29.40;99.90;;;;;;4933528;29;20765;-57
2023/05/15 10:05:30;;;;;;;8.43;3.80;;;29.60;99.90;;;;;;4951422;29;20480;-58
2023/05/15 10:07:57;;;;;;;12.68;11.57;;;29.70;99.90;;;;;;4951415;29;20410;-58
2023/05/15 10:10:23;;;;;;;7.18;3.22;;;30.10;99.90;;;;;;4951180;29;20418;-58
2023/05/15 10:12:53;;;;;;;7.63;3.42;;;29.60;99.90;;;;;;4951916;29;20409;-57
2023/05/15 10:15:21;;;;;;;7.20;2.90;;;29.30;99.90;;;;;;4950866;29;20860;-58
2023/05/15 10:17:48;;;;;;;8.07;3.30;;;29.70;99.90;;;;;;4952391;29;20830;-57
2023/05/15 10:20:18;;;;;;;7.20;2.70;;;29.10;99.90;;;;;;4951476;29;20390;-57
2023/05/15 10:22:49;;;;;;;7.05;3.40;;;28.80;99.90;;;;;;4950798;29;20512;-57
2023/05/15 10:25:17;;;;;;;7.55;3.17;;;28.80;99.90;;;;;;4950917;29;20732;-58
2023/05/15 10:27:45;;;;;;;9.27;2.60;;;28.50;99.90;;;;;;4951360;29;20485;-57
2023/05/15 10:30:13;;;;;;;9.60;3.80;;;27.40;99.90;;;;;;4950548;29;20444;-57
2023/05/15 10:32:40;;;;;;;9.00;5.93;;;26.80;99.90;;;;;;4957173;28;20404;-57
2023/05/15 10:35:08;;;;;;;10.32;9.32;;;26.20;99.90;;;;;;4968898;28;20404;-57
2023/05/15 10:37:35;;;;;;;10.25;8.50;;;25.80;99.90;;;;;;4969383;28;20411;-59
2023/05/15 10:40:02;;;;;;;8.50;7.60;;;25.20;99.90;;;;;;4966977;28;20458;-59
2023/05/15 10:42:29;;;;;;;8.75;6.82;;;25.00;99.90;;;;;;4963182;28;20897;-60
2023/05/15 10:44:58;;;;;;;7.90;6.53;;;24.90;99.90;;;;;;4963121;28;20415;-59
2023/05/15 10:47:25;;;;;;;7.80;6.50;;;24.90;99.90;;;;;;4967840;28;20459;-59
2023/05/15 10:49:51;;;;;;;8.37;6.50;;;24.40;99.90;;;;;;4968108;28;20411;-57
2023/05/15 10:52:17;;;;;;;8.48;7.25;;;24.00;99.90;;;;;;4967515;28;20451;-58
2023/05/15 10:54:44;;;;;;;8.20;7.30;;;24.60;99.90;;;;;;4970491;28;20431;-57
2023/05/15 10:57:10;;;;;;;9.52;6.70;;;25.40;99.90;;;;;;4968457;28;20422;-57
2023/05/15 10:59:35;;;;;;;8.63;7.00;;;25.20;99.90;;;;;;4970046;28;20466;-56
2023/05/15 11:02:24;;;;;;;8.00;6.80;;;24.90;99.90;;;;;;4971439;28;20419;-56
2023/05/15 11:05:02;;;;;;;8.20;6.82;;;24.50;99.90;;;;;;4967103;28;20486;-56
2023/05/15 11:07:28;;;;;;;8.95;7.10;;;24.60;99.90;;;;;;4972373;28;20861;-57
2023/05/15 11:09:55;;;;;;;9.10;7.13;;;24.30;99.90;;;;;;4972396;28;20583;-57
2023/05/15 11:12:22;;;;;;;8.90;6.80;;;24.60;99.90;;;;;;4971605;28;20510;-56
2023/05/15 11:14:50;;;;;;;8.40;7.15;;;24.80;99.90;;;;;;4972518;28;20412;-57
2023/05/15 11:17:17;;;;;;;8.60;7.40;;;24.10;99.90;;;;;;4970766;28;20695;-56
2023/05/15 11:19:48;;;;;;;9.18;7.40;;;23.30;99.90;;;;;;4962553;28;20396;-56
2023/05/15 11:22:15;;;;;;;10.30;7.63;;;22.70;99.90;;;;;;4972523;28;20432;-56
2023/05/15 11:24:53;;;;;;;9.33;7.10;;;22.60;99.90;;;;;;4960530;28;20883;-56
2023/05/15 11:27:36;;;;;;;8.23;6.70;;;22.20;99.90;;;;;;4957448;28;20431;-56
2023/05/15 11:30:21;;;;;;;11.00;6.87;;;22.70;99.90;;;;;;4971075;28;20420;-56
2023/05/15 11:32:46;;;;;;;11.90;7.20;;;23.40;99.90;;;;;;4969746;28;20766;-56
2023/05/15 11:35:13;;;;;;;8.90;7.10;;;23.30;99.90;;;;;;4971173;28;20400;-56
2023/05/15 11:37:47;;;;;;;9.90;6.68;;;22.70;99.90;;;;;;4972571;28;20496;-56
2023/05/15 11:40:28;;;;;;;9.00;6.90;;;22.20;99.90;;;;;;4969976;28;20408;-57
2023/05/15 11:43:04;;;;;;;8.00;6.87;;;22.00;99.90;;;;;;4973137;28;20420;-56
2023/05/15 11:45:38;;;;;;;9.32;7.30;;;22.00;99.90;;;;;;4972743;28;20400;-57
2023/05/15 11:48:06;;;;;;;9.93;7.00;;;22.60;99.90;;;;;;4972610;28;20420;-56
2023/05/15 11:50:33;;;;;;;8.70;7.10;;;23.00;99.90;;;;;;4970746;28;20420;-56
2023/05/15 11:53:03;;;;;;;9.00;7.00;;;22.90;99.90;;;;;;4972928;28;20428;-56
2023/05/15 11:55:31;;;;;;;8.15;6.82;;;23.00;99.90;;;;;;4972759;28;20474;-56
2023/05/15 11:57:56;;;;;;;11.20;7.32;;;22.70;99.90;;;;;;4970900;28;20567;-57
2023/05/15 12:00:22;;;;;;;9.20;7.47;;;22.80;99.90;;;;;;4967240;28;20479;-57
2023/05/15 12:02:48;;;;;;;10.40;7.43;;;22.80;99.90;;;;;;4971799;28;20403;-57
2023/05/15 12:05:14;;;;;;;7.72;6.82;;;22.90;99.90;;;;;;4970316;28;20423;-58
2023/05/15 12:07:43;;;;;;;8.70;7.40;;;22.90;99.90;;;;;;4969358;28;20408;-58
2023/05/15 12:10:11;;;;;;;8.50;6.97;;;22.90;99.90;;;;;;4971941;28;20467;-58
2023/05/15 12:12:47;;;;;;;8.30;6.57;;;23.00;99.90;;;;;;4963563;28;20504;-57
2023/05/15 12:15:15;;;;;;;8.33;7.23;;;23.00;99.90;;;;;;4969449;28;20930;-57
2023/05/15 12:17:42;;;;;;;8.00;6.80;;;22.80;99.90;;;;;;4970662;28;20404;-58
2023/05/15 12:20:14;;;;;;;10.07;7.50;;;22.90;99.90;;;;;;4967899;28;20418;-58
2023/05/15 12:22:43;;;;;;;10.10;7.40;;;23.00;99.90;;;;;;4972220;28;20497;-57
2023/05/15 12:25:14;;;;;;;9.85;6.97;;;23.40;99.90;;;;;;4971557;28;20425;-58
2023/05/15 12:27:40;;;;;;;8.10;6.10;;;24.10;99.90;;;;;;4968888;28;20423;-57
2023/05/15 12:30:07;;;;;;;7.70;6.80;;;24.30;99.90;;;;;;4959304;28;20457;-57
2023/05/15 12:32:35;;;;;;;9.73;6.80;;;24.20;99.90;;;;;;4950765;28;20836;-57
2023/05/15 12:35:01;;;;;;;9.25;7.40;;;24.10;99.90;;;;;;4951924;28;20500;-57
2023/05/15 12:37:29;;;;;;;9.00;6.85;;;24.00;99.90;;;;;;4951957;29;20422;-58
2023/05/15 12:39:59;;;;;;;8.20;7.00;;;23.90;99.90;;;;;;4941469;29;20412;-58
2023/05/15 12:42:25;;;;;;;8.07;6.80;;;23.80;99.90;;;;;;4951688;29;20416;-57
2023/05/15 12:44:52;;;;;;;9.50;6.75;;;23.40;99.90;;;;;;4952727;29;20748;-57
2023/05/15 12:47:25;;;;;;;7.53;6.20;;;23.50;99.90;;;;;;4950841;29;20409;-57
2023/05/15 12:49:56;;;;;;;8.60;6.90;;;23.60;99.90;;;;;;4951329;29;20413;-57